createdAt,value
2019-04-28T00:00:38.806Z,0.00
2019-04-28T00:01:38.826Z,0.00
2019-04-28T00:02:40.740Z,0.00
2019-04-28T00:03:38.777Z,0.00
2019-04-28T00:04:38.774Z,0.00
2019-04-28T00:05:38.754Z,0.00
2019-04-28T00:06:38.744Z,0.00
2019-04-28T00:07:38.758Z,0.00
2019-04-28T00:08:38.719Z,0.00
2019-04-28T00:09:38.708Z,0.00
2019-04-28T00:10:38.695Z,0.00
2019-04-28T00:11:38.686Z,0.00
2019-04-28T00:12:38.713Z,0.00
2019-04-28T00:13:38.782Z,0.00
2019-04-28T00:14:38.665Z,0.00
2019-04-28T00:15:38.648Z,0.00
2019-04-28T00:16:38.688Z,0.00
2019-04-28T00:17:38.631Z,0.00
2019-04-28T00:18:38.636Z,0.00
2019-04-28T00:19:38.615Z,0.00
2019-04-28T00:20:38.619Z,0.00
2019-04-28T00:21:38.592Z,0.00
2019-04-28T00:22:38.583Z,0.00
2019-04-28T00:23:38.553Z,0.00
2019-04-28T00:24:38.550Z,0.00
2019-04-28T00:25:38.553Z,0.00
2019-04-28T00:26:38.548Z,0.00
2019-04-28T00:27:38.515Z,0.00
2019-04-28T00:28:38.506Z,0.00
2019-04-28T00:29:43.540Z,0.00
2019-04-28T00:30:39.482Z,0.00
2019-04-28T00:31:38.500Z,0.00
2019-04-28T00:32:38.461Z,0.00
2019-04-28T00:33:38.444Z,0.00
2019-04-28T00:34:38.514Z,0.00
2019-04-28T00:35:38.421Z,0.00
2019-04-28T00:36:38.418Z,0.00
2019-04-28T00:37:38.411Z,0.00
2019-04-28T00:38:38.416Z,0.00
2019-04-28T00:39:38.404Z,0.00
2019-04-28T00:40:38.371Z,0.00
2019-04-28T00:41:38.360Z,0.00
2019-04-28T00:42:38.424Z,0.00
2019-04-28T00:43:38.340Z,0.00
2019-04-28T00:44:38.328Z,0.00
2019-04-28T00:45:38.333Z,0.00
2019-04-28T00:46:38.306Z,0.00
2019-04-28T00:47:38.303Z,0.00
2019-04-28T00:48:38.290Z,0.00
2019-04-28T00:49:38.273Z,0.00
2019-04-28T00:50:38.364Z,0.00
2019-04-28T00:51:38.278Z,0.00
2019-04-28T00:52:38.238Z,0.00
2019-04-28T00:53:38.295Z,0.00
2019-04-28T00:54:38.229Z,0.00
2019-04-28T00:55:38.206Z,0.00
2019-04-28T00:56:38.195Z,0.00
2019-04-28T00:57:38.220Z,0.00
2019-04-28T00:58:38.175Z,0.00
2019-04-28T00:59:50.878Z,0.00
2019-04-28T01:00:39.153Z,0.00
2019-04-28T01:01:38.150Z,0.00
2019-04-28T01:02:38.142Z,0.00
2019-04-28T01:03:38.137Z,0.00
2019-04-28T01:04:38.130Z,0.00
2019-04-28T01:05:38.117Z,0.00
2019-04-28T01:06:38.219Z,0.00
2019-04-28T01:07:38.079Z,0.00
2019-04-28T01:08:38.078Z,0.00
2019-04-28T01:09:38.136Z,0.00
2019-04-28T01:10:38.044Z,0.00
2019-04-28T01:11:38.067Z,0.00
2019-04-28T01:12:38.054Z,0.00
2019-04-28T01:13:38.017Z,0.00
2019-04-28T01:14:38.019Z,0.00
2019-04-28T01:15:39.646Z,0.00
2019-04-28T01:16:39.861Z,0.00
2019-04-28T01:17:39.720Z,0.00
2019-04-28T01:18:37.975Z,0.00
2019-04-28T01:19:39.798Z,0.00
2019-04-28T01:20:39.680Z,0.00
2019-04-28T01:21:37.935Z,0.00
2019-04-28T01:22:40.040Z,0.00
2019-04-28T01:23:37.955Z,0.00
2019-04-28T01:24:39.639Z,0.00
2019-04-28T01:25:37.977Z,0.00
2019-04-28T01:26:39.166Z,0.00
2019-04-28T01:27:37.868Z,0.00
2019-04-28T01:28:39.663Z,0.00
2019-04-28T01:29:37.890Z,0.00
2019-04-28T01:30:37.838Z,0.00
2019-04-28T01:31:39.518Z,0.00
2019-04-28T01:32:39.897Z,0.00
2019-04-28T01:33:37.805Z,0.00
2019-04-28T01:34:37.779Z,0.00
2019-04-28T01:35:39.160Z,0.00
2019-04-28T01:36:37.773Z,0.00
2019-04-28T01:37:37.752Z,0.00
2019-04-28T01:38:37.792Z,0.00
2019-04-28T01:39:41.031Z,0.00
2019-04-28T01:40:37.732Z,0.00
2019-04-28T01:41:39.629Z,0.00
2019-04-28T01:42:37.693Z,0.00
2019-04-28T01:43:37.895Z,0.00
2019-04-28T01:44:39.407Z,0.00
2019-04-28T01:45:37.671Z,0.00
2019-04-28T01:46:39.732Z,0.00
2019-04-28T01:47:37.703Z,0.00
2019-04-28T01:48:37.630Z,0.00
2019-04-28T01:49:37.731Z,0.00
2019-04-28T01:50:37.661Z,0.00
2019-04-28T01:51:37.609Z,0.00
2019-04-28T01:52:37.589Z,0.00
2019-04-28T01:53:39.455Z,0.00
2019-04-28T01:54:37.566Z,0.00
2019-04-28T01:55:39.348Z,0.00
2019-04-28T01:56:37.542Z,0.00
2019-04-28T01:57:37.571Z,0.00
2019-04-28T01:58:37.542Z,0.00
2019-04-28T01:59:37.573Z,0.00
2019-04-28T02:00:37.493Z,0.00
2019-04-28T02:01:37.513Z,0.00
2019-04-28T02:02:37.471Z,0.00
2019-04-28T02:03:37.476Z,0.00
2019-04-28T02:04:37.465Z,0.00
2019-04-28T02:05:37.561Z,0.00
2019-04-28T02:06:37.458Z,0.00
2019-04-28T02:07:37.456Z,0.00
2019-04-28T02:08:37.496Z,0.00
2019-04-28T02:09:37.403Z,0.00
2019-04-28T02:10:37.396Z,0.00
2019-04-28T02:11:37.383Z,0.00
2019-04-28T02:12:37.374Z,0.00
2019-04-28T02:13:37.423Z,0.00
2019-04-28T02:14:37.379Z,0.00
2019-04-28T02:15:37.333Z,0.00
2019-04-28T02:16:37.344Z,0.00
2019-04-28T02:17:37.320Z,0.00
2019-04-28T02:18:37.296Z,0.00
2019-04-28T02:19:37.325Z,0.00
2019-04-28T02:20:37.287Z,0.00
2019-04-28T02:21:37.282Z,0.00
2019-04-28T02:22:37.277Z,0.00
2019-04-28T02:23:37.257Z,0.00
2019-04-28T02:24:37.270Z,0.00
2019-04-28T02:25:37.250Z,0.00
2019-04-28T02:26:37.228Z,0.00
2019-04-28T02:27:37.205Z,0.00
2019-04-28T02:28:37.221Z,0.00
2019-04-28T02:29:37.420Z,0.00
2019-04-28T02:30:47.933Z,0.00
2019-04-28T02:31:38.168Z,0.00
2019-04-28T02:32:37.186Z,0.00
2019-04-28T02:33:37.150Z,0.00
2019-04-28T02:34:37.129Z,0.00
2019-04-28T02:35:37.178Z,0.00
2019-04-28T02:36:37.175Z,0.00
2019-04-28T02:37:37.130Z,0.00
2019-04-28T02:38:37.084Z,0.00
2019-04-28T02:39:37.142Z,0.00
2019-04-28T02:40:37.072Z,0.00
2019-04-28T02:41:37.055Z,0.00
2019-04-28T02:42:37.103Z,0.00
2019-04-28T02:43:37.030Z,0.00
2019-04-28T02:44:37.025Z,0.00
2019-04-28T02:45:37.015Z,0.00
2019-04-28T02:46:37.002Z,0.00
2019-04-28T02:47:36.982Z,0.00
2019-04-28T02:49:40.324Z,0.00
2019-04-28T02:50:36.963Z,0.00
2019-04-28T02:51:37.022Z,0.00
2019-04-28T02:52:36.941Z,0.00
2019-04-28T02:53:36.993Z,0.00
2019-04-28T02:54:36.906Z,0.00
2019-04-28T02:55:36.934Z,0.00
2019-04-28T02:56:36.888Z,0.00
2019-04-28T02:57:36.883Z,0.00
2019-04-28T02:58:36.951Z,0.00
2019-04-28T02:59:36.880Z,0.00
2019-04-28T03:00:36.888Z,0.00
2019-04-28T03:01:36.862Z,0.00
2019-04-28T03:02:36.819Z,0.00
2019-04-28T03:03:36.807Z,0.00
2019-04-28T03:04:36.839Z,0.00
2019-04-28T03:05:36.843Z,0.00
2019-04-28T03:06:36.782Z,0.00
2019-04-28T03:07:36.794Z,0.00
2019-04-28T03:08:36.772Z,0.00
2019-04-28T03:09:36.760Z,0.00
2019-04-28T03:10:36.796Z,0.00
2019-04-28T03:11:36.719Z,0.00
2019-04-28T03:12:36.831Z,0.00
2019-04-28T03:13:36.744Z,0.00
2019-04-28T03:14:36.713Z,0.00
2019-04-28T03:15:36.750Z,0.00
2019-04-28T03:16:36.685Z,0.00
2019-04-28T03:17:36.672Z,0.00
2019-04-28T03:18:36.670Z,0.00
2019-04-28T03:19:36.664Z,0.00
2019-04-28T03:20:36.633Z,0.00
2019-04-28T03:21:36.666Z,0.00
2019-04-28T03:22:36.632Z,0.00
2019-04-28T03:23:36.595Z,0.00
2019-04-28T03:24:36.582Z,0.00
2019-04-28T03:25:36.616Z,0.00
2019-04-28T03:26:36.567Z,0.00
2019-04-28T03:27:36.569Z,0.00
2019-04-28T03:28:36.618Z,0.00
2019-04-28T03:29:36.541Z,0.00
2019-04-28T03:30:36.592Z,0.00
2019-04-28T03:32:03.895Z,0.00
2019-04-28T03:32:50.928Z,0.00
2019-04-28T03:33:43.493Z,0.00
2019-04-28T03:34:37.521Z,0.00
2019-04-28T03:35:36.498Z,0.00
2019-04-28T03:36:36.479Z,0.00
2019-04-28T03:37:36.438Z,0.00
2019-04-28T03:38:36.440Z,0.00
2019-04-28T03:39:36.449Z,0.00
2019-04-28T03:40:36.437Z,0.00
2019-04-28T03:41:36.436Z,0.00
2019-04-28T03:42:36.404Z,0.00
2019-04-28T03:43:36.369Z,0.00
2019-04-28T03:44:36.400Z,0.00
2019-04-28T03:45:36.387Z,0.00
2019-04-28T03:46:36.420Z,0.00
2019-04-28T03:47:36.426Z,0.00
2019-04-28T03:48:36.340Z,0.00
2019-04-28T03:49:36.309Z,0.00
2019-04-28T03:50:36.329Z,0.00
2019-04-28T03:51:36.342Z,0.00
2019-04-28T03:52:36.302Z,0.00
2019-04-28T03:53:36.324Z,0.00
2019-04-28T03:54:36.251Z,0.00
2019-04-28T03:55:36.236Z,0.00
2019-04-28T03:56:36.228Z,0.00
2019-04-28T03:57:36.341Z,0.00
2019-04-28T03:58:36.209Z,0.00
2019-04-28T03:59:36.201Z,0.00
2019-04-28T04:00:36.232Z,0.00
2019-04-28T04:01:52.168Z,0.00
2019-04-28T04:02:37.671Z,0.00
2019-04-28T04:03:36.151Z,0.00
2019-04-28T04:04:36.223Z,0.00
2019-04-28T04:05:36.211Z,0.00
2019-04-28T04:06:36.141Z,0.00
2019-04-28T04:07:36.218Z,0.00
2019-04-28T04:08:36.269Z,0.00
2019-04-28T04:09:36.116Z,0.00
2019-04-28T04:10:36.112Z,0.00
2019-04-28T04:11:36.223Z,0.00
2019-04-28T04:12:36.039Z,0.00
2019-04-28T04:13:36.070Z,0.00
2019-04-28T04:14:36.033Z,0.00
2019-04-28T04:15:36.022Z,0.00
2019-04-28T04:16:36.067Z,0.00
2019-04-28T04:17:35.983Z,0.00
2019-04-28T04:18:35.980Z,0.00
2019-04-28T04:19:35.981Z,0.00
2019-04-28T04:20:35.967Z,0.00
2019-04-28T04:21:36.053Z,0.00
2019-04-28T04:22:35.958Z,0.00
2019-04-28T04:23:35.970Z,0.00
2019-04-28T04:24:35.929Z,0.00
2019-04-28T04:25:35.952Z,0.00
2019-04-28T04:26:35.887Z,0.00
2019-04-28T04:27:36.093Z,0.00
2019-04-28T04:28:35.881Z,0.00
2019-04-28T04:29:35.854Z,0.00
2019-04-28T04:30:35.915Z,0.00
2019-04-28T04:31:35.839Z,0.00
2019-04-28T04:32:35.829Z,5.62
2019-04-28T04:33:35.858Z,5.62
2019-04-28T04:34:35.804Z,5.62
2019-04-28T04:35:35.835Z,5.62
2019-04-28T04:36:35.781Z,5.62
2019-04-28T04:37:35.773Z,5.62
2019-04-28T04:38:35.754Z,5.62
2019-04-28T04:39:35.755Z,5.62
2019-04-28T04:40:35.776Z,5.62
2019-04-28T04:41:35.726Z,5.62
2019-04-28T04:42:35.720Z,5.62
2019-04-28T04:43:35.711Z,5.62
2019-04-28T04:44:37.984Z,5.62
2019-04-28T04:45:36.698Z,5.62
2019-04-28T04:46:35.687Z,5.62
2019-04-28T04:47:35.686Z,5.62
2019-04-28T04:48:35.823Z,5.62
2019-04-28T04:49:35.665Z,5.62
2019-04-28T04:50:35.634Z,5.62
2019-04-28T04:51:35.667Z,11.25
2019-04-28T04:52:35.605Z,11.25
2019-04-28T04:53:35.607Z,11.25
2019-04-28T04:54:36.847Z,11.25
2019-04-28T04:55:35.568Z,11.25
2019-04-28T04:56:35.561Z,11.25
2019-04-28T04:57:35.629Z,11.25
2019-04-28T04:58:35.542Z,11.25
2019-04-28T04:59:35.584Z,11.25
2019-04-28T05:00:35.552Z,11.25
2019-04-28T05:01:35.509Z,11.25
2019-04-28T05:02:35.535Z,11.25
2019-04-28T05:03:35.495Z,16.88
2019-04-28T05:04:35.480Z,16.88
2019-04-28T05:05:35.584Z,16.88
2019-04-28T05:06:35.462Z,16.88
2019-04-28T05:07:36.054Z,16.88
2019-04-28T05:08:35.450Z,16.88
2019-04-28T05:09:35.442Z,16.88
2019-04-28T05:10:35.434Z,16.88
2019-04-28T05:11:35.411Z,22.50
2019-04-28T05:12:35.410Z,22.50
2019-04-28T05:13:35.426Z,22.50
2019-04-28T05:14:35.398Z,22.50
2019-04-28T05:15:35.350Z,28.12
2019-04-28T05:16:35.350Z,28.12
2019-04-28T05:17:35.400Z,28.12
2019-04-28T05:18:35.320Z,28.12
2019-04-28T05:19:35.337Z,28.12
2019-04-28T05:20:35.462Z,28.12
2019-04-28T05:21:35.329Z,33.75
2019-04-28T05:22:35.286Z,33.75
2019-04-28T05:23:35.306Z,33.75
2019-04-28T05:24:35.242Z,33.75
2019-04-28T05:25:35.279Z,33.75
2019-04-28T05:26:35.231Z,33.75
2019-04-28T05:27:35.252Z,33.75
2019-04-28T05:28:36.833Z,33.75
2019-04-28T05:29:36.244Z,33.75
2019-04-28T05:30:39.728Z,39.38
2019-04-28T05:31:36.207Z,39.38
2019-04-28T05:32:44.660Z,39.38
2019-04-28T05:33:36.234Z,39.38
2019-04-28T05:34:35.289Z,39.38
2019-04-28T05:35:35.792Z,39.38
2019-04-28T05:36:41.094Z,39.38
2019-04-28T05:37:36.111Z,45.00
2019-04-28T05:38:35.131Z,45.00
2019-04-28T05:39:37.724Z,45.00
2019-04-28T05:40:35.109Z,45.00
2019-04-28T05:41:35.066Z,45.00
2019-04-28T05:42:35.050Z,45.00
2019-04-28T05:43:35.074Z,45.00
2019-04-28T05:44:37.505Z,45.00
2019-04-28T05:45:35.053Z,45.00
2019-04-28T05:46:35.024Z,45.00
2019-04-28T05:47:35.017Z,45.00
2019-04-28T05:49:36.215Z,45.00
2019-04-28T05:50:35.564Z,45.00
2019-04-28T05:51:34.965Z,45.00
2019-04-28T05:52:34.945Z,50.62
2019-04-28T05:53:34.980Z,50.62
2019-04-28T05:54:34.990Z,50.62
2019-04-28T05:55:34.956Z,56.25
2019-04-28T05:56:35.011Z,56.25
2019-04-28T05:57:34.899Z,56.25
2019-04-28T05:58:34.892Z,56.25
2019-04-28T05:59:34.931Z,56.25
2019-04-28T06:00:34.937Z,56.25
2019-04-28T06:01:34.890Z,56.25
2019-04-28T06:02:34.834Z,56.25
2019-04-28T06:03:34.821Z,61.88
2019-04-28T06:04:34.862Z,56.25
2019-04-28T06:05:34.816Z,56.25
2019-04-28T06:06:34.842Z,61.88
2019-04-28T06:07:35.616Z,61.88
2019-04-28T06:08:34.894Z,67.50
2019-04-28T06:09:34.793Z,67.50
2019-04-28T06:10:34.766Z,67.50
2019-04-28T06:11:34.760Z,67.50
2019-04-28T06:12:34.762Z,73.12
2019-04-28T06:13:34.716Z,67.50
2019-04-28T06:14:34.897Z,67.50
2019-04-28T06:15:34.696Z,67.50
2019-04-28T06:16:34.675Z,67.50
2019-04-28T06:17:34.721Z,67.50
2019-04-28T06:18:34.651Z,67.50
2019-04-28T06:19:34.671Z,67.50
2019-04-28T06:20:34.719Z,67.50
2019-04-28T06:21:34.649Z,67.50
2019-04-28T06:22:34.659Z,67.50
2019-04-28T06:23:34.638Z,67.50
2019-04-28T06:24:34.662Z,67.50
2019-04-28T06:25:34.589Z,67.50
2019-04-28T06:26:34.596Z,67.50
2019-04-28T06:27:34.580Z,67.50
2019-04-28T06:28:34.545Z,73.12
2019-04-28T06:29:34.595Z,73.12
2019-04-28T06:30:34.535Z,73.12
2019-04-28T06:31:34.506Z,73.12
2019-04-28T06:32:34.526Z,73.12
2019-04-28T06:33:35.068Z,73.12
2019-04-28T06:34:34.523Z,73.12
2019-04-28T06:35:34.585Z,73.12
2019-04-28T06:36:34.623Z,73.12
2019-04-28T06:37:34.537Z,67.50
2019-04-28T06:38:34.432Z,67.50
2019-04-28T06:39:34.460Z,67.50
2019-04-28T06:40:34.521Z,67.50
2019-04-28T06:41:34.431Z,67.50
2019-04-28T06:42:34.403Z,73.12
2019-04-28T06:43:34.503Z,73.12
2019-04-28T06:44:34.447Z,73.12
2019-04-28T06:45:34.461Z,78.75
2019-04-28T06:46:34.364Z,78.75
2019-04-28T06:47:34.368Z,84.38
2019-04-28T06:48:34.395Z,84.38
2019-04-28T06:49:34.461Z,84.38
2019-04-28T06:50:34.331Z,78.75
2019-04-28T06:51:34.300Z,78.75
2019-04-28T06:52:34.298Z,78.75
2019-04-28T06:53:34.334Z,78.75
2019-04-28T06:54:34.329Z,78.75
2019-04-28T06:55:34.272Z,78.75
2019-04-28T06:56:34.250Z,78.75
2019-04-28T06:57:34.433Z,78.75
2019-04-28T06:58:34.254Z,78.75
2019-04-28T06:59:34.241Z,78.75
2019-04-28T07:00:34.415Z,78.75
2019-04-28T07:01:34.182Z,73.12
2019-04-28T07:02:34.184Z,73.12
2019-04-28T07:03:34.242Z,73.12
2019-04-28T07:04:34.142Z,73.12
2019-04-28T07:05:34.188Z,73.12
2019-04-28T07:06:34.185Z,73.12
2019-04-28T07:07:34.194Z,73.12
2019-04-28T07:08:34.103Z,90.00
2019-04-28T07:09:34.121Z,78.75
2019-04-28T07:10:34.119Z,78.75
2019-04-28T07:11:34.080Z,84.38
2019-04-28T07:12:34.138Z,84.38
2019-04-28T07:13:34.145Z,78.75
2019-04-28T07:14:34.064Z,90.00
2019-04-28T07:15:34.040Z,84.38
2019-04-28T07:16:34.051Z,84.38
2019-04-28T07:17:34.000Z,106.88
2019-04-28T07:18:34.009Z,90.00
2019-04-28T07:19:34.011Z,84.38
2019-04-28T07:20:34.008Z,106.88
2019-04-28T07:21:34.018Z,95.62
2019-04-28T07:22:34.056Z,84.38
2019-04-28T07:23:34.039Z,84.38
2019-04-28T07:24:33.941Z,90.00
2019-04-28T07:25:33.949Z,84.38
2019-04-28T07:26:33.914Z,61.88
2019-04-28T07:27:33.912Z,61.88
2019-04-28T07:28:33.889Z,56.25
2019-04-28T07:29:34.098Z,61.88
2019-04-28T07:30:33.900Z,61.88
2019-04-28T07:31:33.855Z,67.50
2019-04-28T07:32:33.853Z,61.88
2019-04-28T07:33:36.122Z,61.88
2019-04-28T07:34:33.872Z,67.50
2019-04-28T07:35:33.825Z,78.75
2019-04-28T07:36:33.808Z,67.50
2019-04-28T07:37:33.804Z,67.50
2019-04-28T07:38:33.794Z,61.88
2019-04-28T07:39:33.790Z,61.88
2019-04-28T07:40:33.768Z,78.75
2019-04-28T07:41:33.761Z,73.12
2019-04-28T07:42:33.733Z,67.50
2019-04-28T07:43:33.716Z,78.75
2019-04-28T07:44:33.760Z,95.62
2019-04-28T07:45:33.773Z,112.50
2019-04-28T07:46:33.727Z,123.75
2019-04-28T07:47:33.687Z,146.25
2019-04-28T07:48:33.682Z,129.38
2019-04-28T07:49:33.668Z,90.00
2019-04-28T07:50:33.643Z,95.62
2019-04-28T07:51:33.670Z,106.88
2019-04-28T07:52:33.615Z,140.62
2019-04-28T07:53:33.720Z,146.25
2019-04-28T07:54:33.630Z,135.00
2019-04-28T07:55:33.616Z,135.00
2019-04-28T07:56:33.563Z,140.62
2019-04-28T07:57:33.594Z,112.50
2019-04-28T07:58:33.558Z,101.25
2019-04-28T07:59:33.541Z,112.50
2019-04-28T08:00:33.521Z,135.00
2019-04-28T08:01:33.584Z,146.25
2019-04-28T08:02:33.528Z,129.38
2019-04-28T08:03:33.523Z,123.75
2019-04-28T08:04:33.485Z,129.38
2019-04-28T08:05:33.492Z,157.50
2019-04-28T08:06:33.479Z,163.12
2019-04-28T08:07:33.470Z,146.25
2019-04-28T08:08:33.547Z,151.88
2019-04-28T08:09:33.653Z,151.88
2019-04-28T08:10:33.436Z,151.88
2019-04-28T08:11:33.414Z,157.50
2019-04-28T08:12:33.502Z,168.75
2019-04-28T08:13:33.385Z,168.75
2019-04-28T08:14:33.400Z,163.12
2019-04-28T08:15:33.370Z,168.75
2019-04-28T08:16:33.352Z,174.38
2019-04-28T08:17:33.419Z,163.12
2019-04-28T08:18:33.334Z,140.62
2019-04-28T08:19:33.334Z,112.50
2019-04-28T08:20:33.354Z,78.75
2019-04-28T08:21:33.293Z,56.25
2019-04-28T08:22:33.285Z,56.25
2019-04-28T08:23:40.933Z,67.50
2019-04-28T08:24:34.291Z,73.12
2019-04-28T08:25:34.094Z,78.75
2019-04-28T08:26:36.113Z,78.75
2019-04-28T08:27:33.234Z,78.75
2019-04-28T08:28:33.337Z,90.00
2019-04-28T08:29:33.221Z,112.50
2019-04-28T08:30:33.196Z,106.88
2019-04-28T08:31:33.194Z,90.00
2019-04-28T08:32:33.222Z,84.38
2019-04-28T08:33:33.416Z,84.38
2019-04-28T08:34:33.172Z,90.00
2019-04-28T08:35:33.172Z,106.88
2019-04-28T08:36:33.136Z,112.50
2019-04-28T08:37:33.210Z,101.25
2019-04-28T08:38:33.139Z,78.75
2019-04-28T08:39:33.116Z,73.12
2019-04-28T08:40:33.128Z,78.75
2019-04-28T08:41:33.076Z,95.62
2019-04-28T08:42:33.072Z,106.88
2019-04-28T08:43:33.046Z,112.50
2019-04-28T08:44:33.043Z,118.12
2019-04-28T08:45:33.063Z,112.50
2019-04-28T08:46:33.109Z,123.75
2019-04-28T08:47:33.027Z,151.88
2019-04-28T08:48:33.055Z,151.88
2019-04-28T08:49:33.003Z,135.00
2019-04-28T08:50:33.024Z,112.50
2019-04-28T08:51:32.977Z,101.25
2019-04-28T08:52:33.062Z,95.62
2019-04-28T08:53:32.958Z,78.75
2019-04-28T08:54:32.953Z,73.12
2019-04-28T08:55:32.943Z,78.75
2019-04-28T08:56:33.599Z,78.75
2019-04-28T08:57:32.947Z,84.38
2019-04-28T08:58:32.941Z,95.62
2019-04-28T08:59:32.876Z,112.50
2019-04-28T09:00:32.924Z,123.75
2019-04-28T09:01:32.857Z,129.38
2019-04-28T09:02:32.863Z,129.38
2019-04-28T09:03:32.836Z,118.12
2019-04-28T09:04:32.857Z,95.62
2019-04-28T09:05:32.937Z,73.12
2019-04-28T09:06:32.804Z,67.50
2019-04-28T09:07:32.890Z,67.50
2019-04-28T09:08:32.901Z,73.12
2019-04-28T09:09:32.773Z,90.00
2019-04-28T09:10:32.770Z,95.62
2019-04-28T09:11:32.806Z,106.88
2019-04-28T09:12:32.753Z,112.50
2019-04-28T09:13:32.787Z,135.00
2019-04-28T09:14:32.714Z,146.25
2019-04-28T09:15:32.715Z,168.75
2019-04-28T09:16:32.704Z,163.12
2019-04-28T09:17:32.925Z,146.25
2019-04-28T09:18:32.806Z,157.50
2019-04-28T09:19:32.686Z,174.38
2019-04-28T09:20:32.694Z,185.62
2019-04-28T09:21:32.639Z,168.75
2019-04-28T09:22:32.732Z,168.75
2019-04-28T09:23:32.636Z,168.75
2019-04-28T09:24:32.618Z,191.25
2019-04-28T09:25:32.664Z,191.25
2019-04-28T09:26:32.600Z,174.38
2019-04-28T09:27:32.694Z,180.00
2019-04-28T09:28:32.555Z,185.62
2019-04-28T09:29:32.552Z,196.88
2019-04-28T09:30:32.631Z,196.88
2019-04-28T09:31:32.524Z,191.25
2019-04-28T09:32:32.520Z,185.62
2019-04-28T09:33:32.507Z,180.00
2019-04-28T09:34:32.494Z,157.50
2019-04-28T09:35:32.478Z,123.75
2019-04-28T09:36:32.508Z,123.75
2019-04-28T09:37:32.469Z,112.50
2019-04-28T09:38:32.536Z,129.38
2019-04-28T09:39:32.459Z,129.38
2019-04-28T09:40:32.432Z,146.25
2019-04-28T09:41:33.109Z,168.75
2019-04-28T09:42:32.708Z,168.75
2019-04-28T09:43:32.395Z,174.38
2019-04-28T09:44:32.388Z,202.50
2019-04-28T09:45:32.363Z,202.50
2019-04-28T09:46:32.377Z,180.00
2019-04-28T09:47:32.367Z,174.38
2019-04-28T09:48:32.391Z,185.62
2019-04-28T09:49:32.324Z,196.88
2019-04-28T09:50:32.334Z,196.88
2019-04-28T09:51:32.301Z,208.12
2019-04-28T09:52:32.301Z,225.00
2019-04-28T09:53:32.308Z,236.25
2019-04-28T09:54:32.328Z,236.25
2019-04-28T09:55:32.274Z,225.00
2019-04-28T09:56:32.249Z,225.00
2019-04-28T09:57:32.240Z,230.62
2019-04-28T09:58:32.255Z,236.25
2019-04-28T09:59:33.125Z,230.62
2019-04-28T10:00:32.214Z,225.00
2019-04-28T10:01:32.256Z,208.12
2019-04-28T10:02:32.270Z,213.75
2019-04-28T10:03:32.215Z,230.62
2019-04-28T10:04:41.337Z,236.25
2019-04-28T10:05:33.188Z,241.88
2019-04-28T10:06:32.136Z,208.12
2019-04-28T10:07:32.134Z,174.38
2019-04-28T10:08:32.143Z,157.50
2019-04-28T10:09:32.267Z,163.12
2019-04-28T10:10:32.156Z,163.12
2019-04-28T10:11:32.090Z,163.12
2019-04-28T10:12:32.089Z,180.00
2019-04-28T10:13:32.128Z,185.62
2019-04-28T10:14:32.080Z,174.38
2019-04-28T10:15:32.212Z,196.88
2019-04-28T10:16:32.242Z,202.50
2019-04-28T10:17:32.142Z,202.50
2019-04-28T10:18:32.173Z,213.75
2019-04-28T10:19:32.705Z,230.62
2019-04-28T10:20:32.003Z,225.00
2019-04-28T10:21:32.016Z,208.12
2019-04-28T10:22:31.972Z,196.88
2019-04-28T10:23:31.957Z,168.75
2019-04-28T10:24:31.945Z,180.00
2019-04-28T10:25:31.971Z,196.88
2019-04-28T10:26:31.911Z,191.25
2019-04-28T10:27:31.918Z,208.12
2019-04-28T10:28:31.930Z,208.12
2019-04-28T10:29:33.005Z,219.38
2019-04-28T10:30:31.930Z,213.75
2019-04-28T10:31:31.872Z,219.38
2019-04-28T10:32:31.859Z,219.38
2019-04-28T10:33:31.844Z,202.50
2019-04-28T10:34:32.623Z,202.50
2019-04-28T10:35:31.822Z,191.25
2019-04-28T10:36:31.845Z,180.00
2019-04-28T10:37:31.881Z,168.75
2019-04-28T10:38:31.782Z,140.62
2019-04-28T10:39:31.788Z,151.88
2019-04-28T10:40:31.792Z,174.38
2019-04-28T10:41:31.780Z,191.25
2019-04-28T10:42:31.757Z,191.25
2019-04-28T10:43:31.771Z,208.12
2019-04-28T10:44:31.741Z,219.38
2019-04-28T10:45:31.721Z,213.75
2019-04-28T10:46:31.692Z,225.00
2019-04-28T10:47:31.825Z,236.25
2019-04-28T10:48:31.737Z,213.75
2019-04-28T10:49:31.675Z,208.12
2019-04-28T10:50:31.647Z,213.75
2019-04-28T10:51:31.642Z,208.12
2019-04-28T10:52:31.633Z,202.50
2019-04-28T10:53:31.663Z,213.75
2019-04-28T10:54:31.726Z,213.75
2019-04-28T10:55:31.777Z,213.75
2019-04-28T10:56:31.587Z,213.75
2019-04-28T10:57:31.598Z,208.12
2019-04-28T10:58:31.598Z,213.75
2019-04-28T10:59:31.602Z,236.25
2019-04-28T11:00:31.558Z,247.50
2019-04-28T11:01:31.541Z,241.88
2019-04-28T11:02:31.534Z,225.00
2019-04-28T11:03:31.508Z,219.38
2019-04-28T11:04:31.552Z,213.75
2019-04-28T11:05:31.537Z,208.12
2019-04-28T11:06:31.498Z,230.62
2019-04-28T11:07:31.498Z,230.62
2019-04-28T11:08:31.451Z,180.00
2019-04-28T11:09:31.482Z,151.88
2019-04-28T11:10:31.435Z,146.25
2019-04-28T11:11:31.418Z,140.62
2019-04-28T11:12:31.433Z,140.62
2019-04-28T11:13:31.420Z,140.62
2019-04-28T11:14:31.543Z,140.62
2019-04-28T11:15:31.424Z,135.00
2019-04-28T11:16:31.376Z,129.38
2019-04-28T11:17:31.445Z,118.12
2019-04-28T11:18:31.358Z,112.50
2019-04-28T11:19:31.438Z,123.75
2019-04-28T11:20:31.323Z,140.62
2019-04-28T11:21:32.190Z,146.25
2019-04-28T11:22:31.305Z,163.12
2019-04-28T11:23:31.283Z,168.75
2019-04-28T11:24:31.322Z,157.50
2019-04-28T11:25:31.266Z,151.88
2019-04-28T11:26:31.268Z,157.50
2019-04-28T11:27:31.279Z,163.12
2019-04-28T11:28:31.229Z,151.88
2019-04-28T11:29:31.241Z,140.62
2019-04-28T11:30:31.213Z,129.38
2019-04-28T11:31:31.259Z,118.12
2019-04-28T11:32:31.183Z,123.75
2019-04-28T11:33:31.227Z,140.62
2019-04-28T11:34:31.169Z,146.25
2019-04-28T11:35:31.155Z,157.50
2019-04-28T11:36:31.139Z,168.75
2019-04-28T11:37:31.158Z,168.75
2019-04-28T11:38:31.295Z,157.50
2019-04-28T11:39:31.109Z,151.88
2019-04-28T11:40:31.090Z,151.88
2019-04-28T11:41:31.131Z,163.12
2019-04-28T11:42:31.085Z,180.00
2019-04-28T11:43:31.068Z,196.88
2019-04-28T11:44:31.217Z,208.12
2019-04-28T11:45:31.076Z,213.75
2019-04-28T11:46:31.744Z,202.50
2019-04-28T11:47:31.035Z,202.50
2019-04-28T11:48:31.008Z,208.12
2019-04-28T11:49:31.000Z,213.75
2019-04-28T11:50:31.010Z,230.62
2019-04-28T11:51:31.054Z,241.88
2019-04-28T11:52:30.969Z,253.12
2019-04-28T11:53:30.947Z,270.00
2019-04-28T11:54:31.085Z,292.50
2019-04-28T11:55:30.947Z,320.62
2019-04-28T11:56:40.863Z,326.25
2019-04-28T11:57:31.934Z,337.50
2019-04-28T11:58:30.934Z,326.25
2019-04-28T11:59:30.890Z,303.75
2019-04-28T12:00:30.880Z,264.38
2019-04-28T12:01:30.879Z,236.25
2019-04-28T12:02:30.882Z,208.12
2019-04-28T12:03:30.874Z,180.00
2019-04-28T12:04:30.832Z,180.00
2019-04-28T12:05:34.565Z,163.12
2019-04-28T12:06:30.809Z,168.75
2019-04-28T12:07:30.799Z,180.00
2019-04-28T12:08:30.881Z,185.62
2019-04-28T12:09:30.781Z,180.00
2019-04-28T12:10:30.852Z,180.00
2019-04-28T12:11:30.759Z,185.62
2019-04-28T12:12:30.754Z,196.88
2019-04-28T12:13:30.885Z,219.38
2019-04-28T12:14:30.754Z,253.12
2019-04-28T12:15:30.711Z,281.25
2019-04-28T12:16:30.694Z,315.00
2019-04-28T12:17:30.689Z,337.50
2019-04-28T12:18:30.672Z,360.00
2019-04-28T12:19:30.711Z,388.12
2019-04-28T12:20:30.666Z,410.62
2019-04-28T12:21:30.665Z,444.38
2019-04-28T12:22:30.634Z,438.75
2019-04-28T12:23:30.625Z,438.75
2019-04-28T12:24:30.647Z,444.38
2019-04-28T12:25:30.650Z,450.00
2019-04-28T12:26:30.587Z,444.38
2019-04-28T12:27:30.583Z,438.75
2019-04-28T12:28:30.564Z,444.38
2019-04-28T12:29:30.586Z,478.12
2019-04-28T12:30:30.542Z,438.75
2019-04-28T12:31:30.537Z,376.88
2019-04-28T12:32:30.542Z,309.38
2019-04-28T12:33:30.507Z,292.50
2019-04-28T12:34:30.543Z,258.75
2019-04-28T12:35:30.481Z,258.75
2019-04-28T12:36:30.483Z,320.62
2019-04-28T12:37:30.471Z,382.50
2019-04-28T12:38:30.459Z,781.88
2019-04-28T12:39:30.439Z,731.25
2019-04-28T12:40:30.680Z,472.50
2019-04-28T12:41:30.422Z,607.50
2019-04-28T12:42:30.455Z,371.25
2019-04-28T12:43:30.535Z,382.50
2019-04-28T12:44:30.380Z,365.62
2019-04-28T12:45:35.151Z,596.25
2019-04-28T12:46:31.406Z,765.00
2019-04-28T12:47:30.352Z,675.00
2019-04-28T12:48:32.621Z,1552.50
2019-04-28T12:49:30.327Z,984.38
2019-04-28T12:50:30.347Z,922.50
2019-04-28T12:51:30.307Z,624.38
2019-04-28T12:52:30.297Z,365.62
2019-04-28T12:53:30.284Z,331.88
2019-04-28T12:54:30.308Z,315.00